createdAt,value
2017-07-23T00:02:01.839Z,24.77
2017-07-23T00:04:30.014Z,24.90
2017-07-23T00:06:58.190Z,25.10
2017-07-23T00:09:26.374Z,24.33
2017-07-23T00:11:54.534Z,26.25
2017-07-23T00:14:22.705Z,23.80
2017-07-23T00:16:50.878Z,23.70
2017-07-23T00:19:19.041Z,24.25
2017-07-23T00:21:47.201Z,24.70
2017-07-23T00:24:16.160Z,24.50
2017-07-23T00:26:44.336Z,26.45
2017-07-23T00:29:12.507Z,24.77
2017-07-23T00:31:40.679Z,27.27
2017-07-23T00:34:08.858Z,24.58
2017-07-23T00:36:37.014Z,25.23
2017-07-23T00:39:05.283Z,25.30
2017-07-23T00:41:33.434Z,27.08
2017-07-23T00:44:01.613Z,25.25
2017-07-23T00:46:29.805Z,25.67
2017-07-23T00:48:57.985Z,25.02
2017-07-23T00:51:26.160Z,25.88
2017-07-23T00:53:54.360Z,27.48
2017-07-23T00:56:22.522Z,26.52
2017-07-23T00:58:50.696Z,24.67
2017-07-23T01:01:18.915Z,24.30
2017-07-23T01:03:47.856Z,24.23
2017-07-23T01:06:16.012Z,26.80
2017-07-23T01:08:44.192Z,25.75
2017-07-23T01:11:12.351Z,26.52
2017-07-23T01:13:40.524Z,25.02
2017-07-23T01:16:08.698Z,25.20
2017-07-23T01:18:36.877Z,27.85
2017-07-23T01:21:05.052Z,26.10
2017-07-23T01:23:33.235Z,26.60
2017-07-23T01:26:01.395Z,26.55
2017-07-23T01:28:29.570Z,26.58
2017-07-23T01:30:57.768Z,27.02
2017-07-23T01:33:25.914Z,25.95
2017-07-23T01:35:54.079Z,25.98
2017-07-23T01:38:22.261Z,25.30
2017-07-23T01:40:50.443Z,24.85
2017-07-23T01:43:18.598Z,25.70
2017-07-23T01:45:46.787Z,27.02
2017-07-23T01:48:14.951Z,24.98
2017-07-23T01:50:43.132Z,24.98
2017-07-23T01:53:11.309Z,26.17
2017-07-23T01:55:39.469Z,26.80
2017-07-23T01:58:08.403Z,27.52
2017-07-23T02:00:36.596Z,25.95
2017-07-23T02:03:04.755Z,24.80
2017-07-23T02:05:32.913Z,26.10
2017-07-23T02:08:01.117Z,26.37
2017-07-23T02:10:29.277Z,27.10
2017-07-23T02:12:57.429Z,25.62
2017-07-23T02:15:25.607Z,26.73
2017-07-23T02:17:53.777Z,24.85
2017-07-23T02:20:21.952Z,25.25
2017-07-23T02:22:50.150Z,27.75
2017-07-23T02:25:18.298Z,26.27
2017-07-23T02:27:46.450Z,25.12
2017-07-23T02:30:15.429Z,26.25
2017-07-23T02:32:43.578Z,26.20
2017-07-23T02:35:11.760Z,27.20
2017-07-23T02:37:39.943Z,27.13
2017-07-23T02:40:08.116Z,28.10
2017-07-23T02:42:36.265Z,28.10
2017-07-23T02:45:04.459Z,27.15
2017-07-23T02:47:32.636Z,28.50
2017-07-23T02:50:00.819Z,28.55
2017-07-23T02:52:29.025Z,30.15
2017-07-23T02:54:57.200Z,28.23
2017-07-23T02:57:25.373Z,29.50
2017-07-23T02:59:54.342Z,29.37
2017-07-23T03:02:22.490Z,29.92
2017-07-23T03:04:50.657Z,30.40
2017-07-23T03:07:18.854Z,31.80
2017-07-23T03:09:47.014Z,30.35
2017-07-23T03:12:15.167Z,32.05
2017-07-23T03:14:43.373Z,30.73
2017-07-23T03:17:11.552Z,29.85
2017-07-23T03:19:39.706Z,30.62
2017-07-23T03:22:07.886Z,30.25
2017-07-23T03:24:36.038Z,30.83
2017-07-23T03:27:04.209Z,30.88
2017-07-23T03:29:32.408Z,31.92
2017-07-23T03:32:00.585Z,32.50
2017-07-23T03:34:28.766Z,31.70
2017-07-23T03:36:56.965Z,30.70
2017-07-23T03:39:25.906Z,30.90
2017-07-23T03:41:54.078Z,29.42
2017-07-23T03:44:22.704Z,30.23
2017-07-23T03:46:50.858Z,30.70
2017-07-23T03:49:19.029Z,30.33
2017-07-23T03:51:47.257Z,29.70
2017-07-23T03:54:16.197Z,30.60
2017-07-23T03:56:44.372Z,32.42
2017-07-23T03:59:12.568Z,29.08
2017-07-23T04:01:40.717Z,28.20
2017-07-23T04:04:08.879Z,29.27
2017-07-23T04:06:37.080Z,28.20
2017-07-23T04:09:05.238Z,28.73
2017-07-23T04:11:33.412Z,27.37
2017-07-23T04:14:01.613Z,29.33
2017-07-23T04:16:29.790Z,28.77
2017-07-23T04:18:58.183Z,27.95
2017-07-23T04:21:26.397Z,27.80
2017-07-23T04:23:54.573Z,28.23
2017-07-23T04:26:22.744Z,28.33
2017-07-23T04:28:50.950Z,28.92
2017-07-23T04:31:19.111Z,26.62
2017-07-23T04:33:47.278Z,29.70
2017-07-23T04:36:15.465Z,27.98
2017-07-23T04:38:43.622Z,28.52
2017-07-23T04:41:11.774Z,29.90
2017-07-23T04:43:40.718Z,30.90
2017-07-23T04:46:08.890Z,31.83
2017-07-23T04:48:37.069Z,31.35
2017-07-23T04:51:05.288Z,33.15
2017-07-23T04:53:34.226Z,33.83
2017-07-23T04:56:02.400Z,34.40
2017-07-23T04:58:30.605Z,32.80
2017-07-23T05:00:58.794Z,34.13
2017-07-23T05:03:26.954Z,35.35
2017-07-23T05:05:55.148Z,35.60
2017-07-23T05:08:24.070Z,36.50
2017-07-23T05:10:52.241Z,35.90
2017-07-23T05:13:20.442Z,35.03
2017-07-23T05:15:48.610Z,34.75
2017-07-23T05:18:16.762Z,33.95
2017-07-23T05:20:44.950Z,33.13
2017-07-23T05:23:13.128Z,32.33
2017-07-23T05:25:41.286Z,31.05
2017-07-23T05:28:09.474Z,30.67
2017-07-23T05:30:37.630Z,30.77
2017-07-23T05:33:05.800Z,28.75
2017-07-23T05:35:34.765Z,31.50
2017-07-23T05:38:02.944Z,30.23
2017-07-23T05:40:31.110Z,31.73
2017-07-23T05:42:59.286Z,32.13
2017-07-23T05:45:27.440Z,26.48
2017-07-23T05:47:55.610Z,25.08
2017-07-23T05:50:23.789Z,23.55
2017-07-23T05:52:51.960Z,21.77
2017-07-23T05:55:20.133Z,23.35
2017-07-23T05:57:48.335Z,21.83
2017-07-23T06:00:16.488Z,22.45
2017-07-23T06:02:44.661Z,22.45
2017-07-23T06:05:12.855Z,23.80
2017-07-23T06:07:42.641Z,23.25
2017-07-23T06:10:11.594Z,24.15
2017-07-23T06:12:39.835Z,25.80
2017-07-23T06:15:07.991Z,25.20
2017-07-23T06:17:36.154Z,26.67
2017-07-23T06:20:04.357Z,26.98
2017-07-23T06:22:32.532Z,27.15
2017-07-23T06:25:00.690Z,28.60
2017-07-23T06:27:28.903Z,29.70
2017-07-23T06:29:57.849Z,30.00
2017-07-23T06:32:26.010Z,31.87
2017-07-23T06:34:54.212Z,32.08
2017-07-23T06:37:22.371Z,35.28
2017-07-23T06:39:50.556Z,34.13
2017-07-23T06:42:18.756Z,35.42
2017-07-23T06:44:46.905Z,31.83
2017-07-23T06:47:15.088Z,33.05
2017-07-23T06:49:43.285Z,32.78
2017-07-23T06:52:11.456Z,30.60
2017-07-23T06:54:39.629Z,27.73
2017-07-23T06:57:07.825Z,29.25
2017-07-23T06:59:36.785Z,28.62
2017-07-23T07:02:04.953Z,29.42
2017-07-23T07:04:33.373Z,32.20
2017-07-23T07:07:02.316Z,28.30
2017-07-23T07:09:30.493Z,25.77
2017-07-23T07:11:58.692Z,28.55
2017-07-23T07:14:26.869Z,23.27
2017-07-23T07:16:55.036Z,22.05
2017-07-23T07:19:23.234Z,17.90
2017-07-23T07:21:52.175Z,16.58
2017-07-23T07:24:20.339Z,17.12
2017-07-23T07:26:48.589Z,17.00
2017-07-23T07:29:17.529Z,15.60
2017-07-23T07:31:45.695Z,16.08
2017-07-23T07:34:13.901Z,15.95
2017-07-23T07:36:42.064Z,14.00
2017-07-23T07:39:10.226Z,14.98
2017-07-23T07:41:38.420Z,14.98
2017-07-23T07:44:06.573Z,13.45
2017-07-23T07:46:34.748Z,13.07
2017-07-23T07:49:02.929Z,13.40
2017-07-23T07:51:31.082Z,13.40
2017-07-23T07:53:59.262Z,14.95
2017-07-23T07:56:27.450Z,14.55
2017-07-23T07:58:55.614Z,16.50
2017-07-23T08:01:23.774Z,16.30
2017-07-23T08:03:51.972Z,13.73
2017-07-23T08:06:20.141Z,16.25
2017-07-23T08:08:48.319Z,13.10
2017-07-23T08:11:16.511Z,12.10
2017-07-23T08:13:44.698Z,9.63
2017-07-23T08:16:12.869Z,10.38
2017-07-23T08:18:41.049Z,11.25
2017-07-23T08:21:09.203Z,9.88
2017-07-23T08:23:37.361Z,11.25
2017-07-23T08:26:05.905Z,11.38
2017-07-23T08:28:34.838Z,8.30
2017-07-23T08:31:03.015Z,8.15
2017-07-23T08:33:31.249Z,6.90
2017-07-23T08:36:00.165Z,7.10
2017-07-23T08:38:28.326Z,6.80
2017-07-23T08:40:56.517Z,7.25
2017-07-23T08:43:24.665Z,7.50
2017-07-23T08:45:53.597Z,7.28
2017-07-23T08:48:21.766Z,8.07
2017-07-23T08:50:49.932Z,6.70
2017-07-23T08:53:18.082Z,3.80
2017-07-23T08:55:46.281Z,3.67
2017-07-23T08:58:14.430Z,4.62
2017-07-23T09:00:42.600Z,4.15
2017-07-23T09:03:11.565Z,4.78
2017-07-23T09:05:39.710Z,3.70
2017-07-23T09:08:07.858Z,3.47
2017-07-23T09:10:36.039Z,4.75
2017-07-23T09:13:04.189Z,4.00
2017-07-23T09:15:33.101Z,9.10
2017-07-23T09:18:01.319Z,9.43
2017-07-23T09:20:29.482Z,6.00
2017-07-23T09:22:57.648Z,6.00
2017-07-23T09:25:25.836Z,6.72
2017-07-23T09:27:54.005Z,6.70
2017-07-23T09:30:22.171Z,6.78
2017-07-23T09:32:50.343Z,7.68
2017-07-23T09:35:18.492Z,6.87
2017-07-23T09:37:46.649Z,6.72
2017-07-23T09:40:14.823Z,8.30
2017-07-23T09:42:43.738Z,7.97
2017-07-23T09:45:11.890Z,6.70
2017-07-23T09:47:41.789Z,8.45
2017-07-23T09:50:09.956Z,7.30
2017-07-23T09:52:38.106Z,8.27
2017-07-23T09:55:06.297Z,8.68
2017-07-23T09:57:34.460Z,7.78
2017-07-23T10:00:02.622Z,6.45
2017-07-23T10:02:30.813Z,5.50
2017-07-23T10:04:58.949Z,6.80
2017-07-23T10:07:27.108Z,5.30
2017-07-23T10:09:56.046Z,5.40
2017-07-23T10:12:24.212Z,4.97
2017-07-23T10:14:52.377Z,5.10
2017-07-23T10:17:20.553Z,6.78
2017-07-23T10:19:48.715Z,6.55
2017-07-23T10:22:16.901Z,6.47
2017-07-23T10:24:45.094Z,7.05
2017-07-23T10:27:13.262Z,6.37
2017-07-23T10:29:41.410Z,6.20
2017-07-23T10:32:09.583Z,6.00
2017-07-23T10:34:37.766Z,6.97
2017-07-23T10:37:05.935Z,6.87
2017-07-23T10:39:34.140Z,6.07
2017-07-23T10:42:02.306Z,6.47
2017-07-23T10:44:30.468Z,6.30
2017-07-23T10:46:58.643Z,5.65
2017-07-23T10:49:26.782Z,6.40
2017-07-23T10:51:55.699Z,6.40
2017-07-23T10:54:23.872Z,6.28
2017-07-23T10:56:52.040Z,7.80
2017-07-23T10:59:20.229Z,8.02
2017-07-23T11:01:48.434Z,6.32
2017-07-23T11:04:16.616Z,7.30
2017-07-23T11:06:44.758Z,8.00
2017-07-23T11:09:12.953Z,7.62
2017-07-23T11:11:41.122Z,8.95
2017-07-23T11:14:09.277Z,8.25
2017-07-23T11:16:37.454Z,7.93
2017-07-23T11:19:05.599Z,9.00
2017-07-23T11:21:34.534Z,9.65
2017-07-23T11:24:02.709Z,10.20
2017-07-23T11:26:30.883Z,11.05
2017-07-23T11:28:59.049Z,8.25
2017-07-23T11:31:27.232Z,11.55
2017-07-23T11:33:55.381Z,9.90
2017-07-23T11:36:23.544Z,9.15
2017-07-23T11:38:51.734Z,11.90
2017-07-23T11:41:19.905Z,10.88
2017-07-23T11:43:48.077Z,9.40
2017-07-23T11:46:16.281Z,10.82
2017-07-23T11:48:44.450Z,10.10
2017-07-23T11:51:12.606Z,9.88
2017-07-23T11:53:40.809Z,10.00
2017-07-23T11:56:08.976Z,8.80
2017-07-23T11:58:37.149Z,11.00
2017-07-23T12:01:05.321Z,8.90
2017-07-23T12:03:33.503Z,10.10
2017-07-23T12:06:01.659Z,10.65
2017-07-23T12:08:29.853Z,8.73
2017-07-23T12:10:57.999Z,8.95
2017-07-23T12:13:26.163Z,12.55
2017-07-23T12:15:54.362Z,11.70
2017-07-23T12:18:22.535Z,9.45
2017-07-23T12:20:50.722Z,9.60
2017-07-23T12:23:18.901Z,8.68
2017-07-23T12:25:47.069Z,9.13
2017-07-23T12:28:15.217Z,8.52
2017-07-23T12:30:43.403Z,7.80
2017-07-23T12:33:11.550Z,8.65
2017-07-23T12:35:40.466Z,6.75
2017-07-23T12:38:08.654Z,6.30
2017-07-23T12:40:36.816Z,5.93
2017-07-23T12:43:04.968Z,4.50
2017-07-23T12:45:33.172Z,4.40
2017-07-23T12:48:01.317Z,4.25
2017-07-23T12:50:29.470Z,4.32
2017-07-23T12:52:58.435Z,4.70
2017-07-23T12:55:26.596Z,5.10
2017-07-23T12:57:54.769Z,5.45
2017-07-23T13:00:22.950Z,5.47
2017-07-23T13:02:51.094Z,6.15
2017-07-23T13:05:19.242Z,5.87
2017-07-23T13:07:48.190Z,6.00
2017-07-23T13:10:16.361Z,6.68
2017-07-23T13:12:44.534Z,6.28
2017-07-23T13:15:12.710Z,9.07
2017-07-23T13:17:40.873Z,7.22
2017-07-23T13:20:09.036Z,8.93
2017-07-23T13:22:37.230Z,6.00
2017-07-23T13:25:05.406Z,4.22
2017-07-23T13:27:33.555Z,3.80
2017-07-23T13:30:01.740Z,4.40
2017-07-23T13:32:29.908Z,4.05
2017-07-23T13:34:58.054Z,3.42
2017-07-23T13:37:27.009Z,3.53
2017-07-23T13:39:55.157Z,4.10
2017-07-23T13:42:23.302Z,3.03
2017-07-23T13:44:52.242Z,4.80
2017-07-23T13:47:20.413Z,3.45
2017-07-23T13:49:48.577Z,3.33
2017-07-23T13:52:16.777Z,3.65
2017-07-23T13:54:44.930Z,3.50
2017-07-23T13:57:13.087Z,3.70
2017-07-23T13:59:41.285Z,4.43
2017-07-23T14:02:09.436Z,7.12
2017-07-23T14:04:37.600Z,4.53
2017-07-23T14:07:05.792Z,4.25
2017-07-23T14:09:33.938Z,4.15
2017-07-23T14:12:02.864Z,4.30
2017-07-23T14:14:31.041Z,3.33
2017-07-23T14:16:59.217Z,3.80
2017-07-23T14:19:27.397Z,5.15
2017-07-23T14:21:55.583Z,3.60
2017-07-23T14:24:23.753Z,3.20
2017-07-23T14:26:51.919Z,3.85
2017-07-23T14:29:20.109Z,5.50
2017-07-23T14:31:48.266Z,4.53
2017-07-23T14:34:16.437Z,3.80
2017-07-23T14:36:44.633Z,4.75
2017-07-23T14:39:12.782Z,4.15
2017-07-23T14:41:40.933Z,10.88
2017-07-23T14:44:09.114Z,4.15
2017-07-23T14:46:37.287Z,3.40
2017-07-23T14:49:05.460Z,4.15
2017-07-23T14:51:33.657Z,5.00
2017-07-23T14:54:01.825Z,2.65
2017-07-23T14:56:29.977Z,3.40
2017-07-23T14:58:58.189Z,12.88
2017-07-23T15:01:26.341Z,3.55
2017-07-23T15:03:54.486Z,3.70
2017-07-23T15:06:23.458Z,3.45
2017-07-23T15:08:51.606Z,2.85
2017-07-23T15:11:19.778Z,3.30
2017-07-23T15:13:48.003Z,2.92
2017-07-23T15:16:16.941Z,3.22
2017-07-23T15:18:45.108Z,8.48
2017-07-23T15:21:13.281Z,3.60
2017-07-23T15:23:41.442Z,3.95
2017-07-23T15:26:09.610Z,4.70
2017-07-23T15:28:37.812Z,3.10
2017-07-23T15:31:05.977Z,4.10
2017-07-23T15:33:34.149Z,2.92
2017-07-23T15:36:02.323Z,2.70
2017-07-23T15:38:30.484Z,3.10
2017-07-23T15:40:58.640Z,3.50
2017-07-23T15:43:28.021Z,2.87
2017-07-23T15:45:56.196Z,4.57
2017-07-23T15:48:25.399Z,4.72
2017-07-23T15:50:53.610Z,10.00
2017-07-23T15:53:21.783Z,14.23
2017-07-23T15:55:50.715Z,4.97
2017-07-23T15:58:18.893Z,2.53
2017-07-23T16:00:47.038Z,4.03
2017-07-23T16:03:15.216Z,2.60
2017-07-23T16:05:43.394Z,3.65
2017-07-23T16:08:11.561Z,3.80
2017-07-23T16:10:39.733Z,4.10
2017-07-23T16:13:07.909Z,2.87
2017-07-23T16:15:36.069Z,2.92
2017-07-23T16:18:04.980Z,2.55
2017-07-23T16:20:33.150Z,3.80
2017-07-23T16:23:01.324Z,5.00
2017-07-23T16:25:29.492Z,2.97
2017-07-23T16:27:57.686Z,2.90
2017-07-23T16:30:25.836Z,4.28
2017-07-23T16:32:54.004Z,3.65
2017-07-23T16:35:22.964Z,15.45
2017-07-23T16:37:51.136Z,11.45
2017-07-23T16:40:19.298Z,10.95
2017-07-23T16:42:47.478Z,7.85
2017-07-23T16:45:15.629Z,4.60
2017-07-23T16:47:43.798Z,7.68
2017-07-23T16:50:11.971Z,4.10
2017-07-23T16:52:40.122Z,6.72
2017-07-23T16:55:08.294Z,7.05
2017-07-23T16:57:37.253Z,7.28
2017-07-23T17:00:05.417Z,5.03
2017-07-23T17:02:33.593Z,3.75
2017-07-23T17:05:01.774Z,7.00
2017-07-23T17:07:29.947Z,7.87
2017-07-23T17:09:58.124Z,4.35
2017-07-23T17:12:26.298Z,3.65
2017-07-23T17:14:54.447Z,3.85
2017-07-23T17:17:22.624Z,6.35
2017-07-23T17:19:50.821Z,3.95
2017-07-23T17:22:18.977Z,3.90
2017-07-23T17:24:47.967Z,3.37
2017-07-23T17:27:16.164Z,5.20
2017-07-23T17:29:44.328Z,3.92
2017-07-23T17:32:12.478Z,4.10
2017-07-23T17:34:40.661Z,4.07
2017-07-23T17:37:08.838Z,3.90
2017-07-23T17:39:36.990Z,4.35
2017-07-23T17:42:05.205Z,4.70
2017-07-23T17:44:33.368Z,6.78
2017-07-23T17:47:01.546Z,4.30
2017-07-23T17:49:29.736Z,4.37
2017-07-23T17:51:57.898Z,4.50
2017-07-23T17:54:26.064Z,3.60
2017-07-23T17:56:54.234Z,5.30
2017-07-23T17:59:22.410Z,4.00
2017-07-23T18:01:50.583Z,3.50
2017-07-23T18:04:18.762Z,4.35
2017-07-23T18:06:46.949Z,4.78
2017-07-23T18:09:15.112Z,9.98
2017-07-23T18:11:43.323Z,8.57
2017-07-23T18:14:11.476Z,8.15
2017-07-23T18:16:39.650Z,6.00
2017-07-23T18:19:07.848Z,7.00
2017-07-23T18:21:36.003Z,9.73
2017-07-23T18:24:04.172Z,8.85
2017-07-23T18:26:32.373Z,11.45
2017-07-23T18:29:00.517Z,6.00
2017-07-23T18:31:28.693Z,6.90
2017-07-23T18:33:56.897Z,7.97
2017-07-23T18:36:25.851Z,6.93
2017-07-23T18:38:54.044Z,7.65
2017-07-23T18:41:22.251Z,7.25
2017-07-23T18:43:51.305Z,4.80
2017-07-23T18:46:19.584Z,3.33
2017-07-23T18:48:47.953Z,2.72
2017-07-23T18:51:16.385Z,3.97
2017-07-23T18:53:44.776Z,3.17
2017-07-23T18:56:13.203Z,2.65
2017-07-23T18:58:41.630Z,2.72
2017-07-23T19:01:10.144Z,2.42
2017-07-23T19:03:38.644Z,3.03
2017-07-23T19:06:07.874Z,3.10
2017-07-23T19:08:36.338Z,3.00
2017-07-23T19:11:04.852Z,2.90
2017-07-23T19:13:33.303Z,3.33
2017-07-23T19:16:02.514Z,2.75
2017-07-23T19:18:31.026Z,2.55
2017-07-23T19:20:59.505Z,2.80
2017-07-23T19:23:27.950Z,3.40
2017-07-23T19:25:57.230Z,3.40
2017-07-23T19:28:26.469Z,3.50
2017-07-23T19:30:54.887Z,3.62
2017-07-23T19:33:23.394Z,3.60
2017-07-23T19:35:52.643Z,3.03
2017-07-23T19:38:21.146Z,2.90
2017-07-23T19:40:49.662Z,3.00
2017-07-23T19:43:18.909Z,3.50
2017-07-23T19:45:47.407Z,2.78
2017-07-23T19:48:15.938Z,2.80
2017-07-23T19:50:44.444Z,2.65
2017-07-23T19:53:12.929Z,3.58
2017-07-23T19:55:41.451Z,3.37
2017-07-23T19:58:09.856Z,3.10
2017-07-23T20:00:38.235Z,3.85
2017-07-23T20:03:06.741Z,3.90
2017-07-23T20:05:35.180Z,3.10
2017-07-23T20:08:03.589Z,3.22
2017-07-23T20:10:32.767Z,3.20
2017-07-23T20:13:01.200Z,3.50
2017-07-23T20:15:29.629Z,2.95
2017-07-23T20:17:57.995Z,3.35
2017-07-23T20:20:26.330Z,4.30
2017-07-23T20:22:54.618Z,3.78
2017-07-23T20:25:23.638Z,4.12
2017-07-23T20:27:51.818Z,4.25
2017-07-23T20:30:19.984Z,3.50
2017-07-23T20:32:48.162Z,2.95
2017-07-23T20:35:16.314Z,3.80
2017-07-23T20:37:44.488Z,3.22
2017-07-23T20:40:12.677Z,3.72
2017-07-23T20:42:40.826Z,3.90
2017-07-23T20:45:09.762Z,3.28
2017-07-23T20:47:37.965Z,2.65
2017-07-23T20:50:06.133Z,2.70
2017-07-23T20:52:34.291Z,2.60
2017-07-23T20:55:02.488Z,2.25
2017-07-23T20:57:30.640Z,2.20
2017-07-23T20:59:58.785Z,2.50
2017-07-23T21:02:26.958Z,2.15
2017-07-23T21:04:55.126Z,2.20
2017-07-23T21:07:24.058Z,1.83
2017-07-23T21:09:52.234Z,2.50
2017-07-23T21:12:20.409Z,2.20
2017-07-23T21:14:48.574Z,2.30
2017-07-23T21:17:16.776Z,2.40
2017-07-23T21:19:44.922Z,2.37
2017-07-23T21:22:13.070Z,2.55
2017-07-23T21:24:41.267Z,2.78
2017-07-23T21:27:09.415Z,2.40
2017-07-23T21:29:38.373Z,2.03
2017-07-23T21:32:06.549Z,2.42
2017-07-23T21:34:34.705Z,2.42
2017-07-23T21:37:02.873Z,2.78
2017-07-23T21:39:31.072Z,2.92
2017-07-23T21:41:59.245Z,3.92
2017-07-23T21:44:27.420Z,2.70
2017-07-23T21:46:55.620Z,3.00
2017-07-23T21:49:24.568Z,2.58
2017-07-23T21:51:52.737Z,3.28
2017-07-23T21:54:20.929Z,2.95
2017-07-23T21:56:49.072Z,2.97
2017-07-23T21:59:17.219Z,3.30
2017-07-23T22:01:46.177Z,2.45
2017-07-23T22:04:14.330Z,2.50
2017-07-23T22:06:42.487Z,3.22
2017-07-23T22:09:10.682Z,2.60
2017-07-23T22:11:38.858Z,2.35
2017-07-23T22:14:07.026Z,2.42
2017-07-23T22:16:35.206Z,2.87
2017-07-23T22:19:03.376Z,2.58
2017-07-23T22:21:31.550Z,2.50
2017-07-23T22:23:59.749Z,2.50
2017-07-23T22:26:27.912Z,2.92
2017-07-23T22:28:56.058Z,2.65
2017-07-23T22:31:24.241Z,3.00
2017-07-23T22:33:52.421Z,2.60
2017-07-23T22:36:20.565Z,3.00
2017-07-23T22:38:48.766Z,3.00
2017-07-23T22:41:16.931Z,2.47
2017-07-23T22:43:45.093Z,2.80
2017-07-23T22:46:13.285Z,2.97
2017-07-23T22:48:41.442Z,2.90
2017-07-23T22:51:09.590Z,3.00
2017-07-23T22:53:38.548Z,3.53
2017-07-23T22:56:06.713Z,3.10
2017-07-23T22:58:34.857Z,2.95
2017-07-23T23:01:03.049Z,2.95
2017-07-23T23:03:31.194Z,3.05
2017-07-23T23:05:59.367Z,3.42
2017-07-23T23:08:28.321Z,3.17
2017-07-23T23:10:56.471Z,3.10
2017-07-23T23:13:24.615Z,2.83
2017-07-23T23:15:52.924Z,3.35
2017-07-23T23:18:21.067Z,3.10
2017-07-23T23:20:49.210Z,3.95
2017-07-23T23:23:17.378Z,3.12
2017-07-23T23:25:45.529Z,3.58
2017-07-23T23:28:13.676Z,3.17
2017-07-23T23:30:41.874Z,3.50
2017-07-23T23:33:10.069Z,4.25
2017-07-23T23:35:38.217Z,3.53
2017-07-23T23:38:06.394Z,3.97
2017-07-23T23:40:35.250Z,4.00
2017-07-23T23:43:03.446Z,3.78
2017-07-23T23:45:31.644Z,3.55
2017-07-23T23:47:59.832Z,3.90
2017-07-23T23:50:27.982Z,3.70
2017-07-23T23:52:56.156Z,3.90
2017-07-23T23:55:24.328Z,3.62
2017-07-23T23:57:52.479Z,3.83
